sensor_id;sensor_type;location;lat;lon;timestamp;temperature;humidity
45868;DHT22;31582;45.490;7.860;2023-03-05T02:21:53;3.10;99.90
45868;DHT22;31582;45.490;7.860;2023-03-05T02:24:35;3.10;99.90
45868;DHT22;31582;45.490;7.860;2023-03-05T02:27:03;3.10;99.90
45868;DHT22;31582;45.490;7.860;2023-03-05T02:29:30;3.10;99.90
45868;DHT22;31582;45.490;7.860;2023-03-05T02:31:59;3.10;99.90
45868;DHT22;31582;45.490;7.860;2023-03-05T02:34:27;3.10;99.90
45868;DHT22;31582;45.490;7.860;2023-03-05T02:36:54;3.10;99.90
45868;DHT22;31582;45.490;7.860;2023-03-05T02:39:21;3.10;99.90
45868;DHT22;31582;45.490;7.860;2023-03-05T02:41:48;3.10;99.90
45868;DHT22;31582;45.490;7.860;2023-03-05T02:44:15;3.00;99.90
45868;DHT22;31582;45.490;7.860;2023-03-05T02:46:41;3.00;99.90
45868;DHT22;31582;45.490;7.860;2023-03-05T02:49:08;3.00;99.90
45868;DHT22;31582;45.490;7.860;2023-03-05T02:51:35;2.90;99.90
45868;DHT22;31582;45.490;7.860;2023-03-05T02:54:02;2.90;99.90
45868;DHT22;31582;45.490;7.860;2023-03-05T02:56:29;2.90;99.90
45868;DHT22;31582;45.490;7.860;2023-03-05T02:58:56;2.90;99.90
45868;DHT22;31582;45.490;7.860;2023-03-05T03:01:23;2.90;99.90
45868;DHT22;31582;45.490;7.860;2023-03-05T03:03:50;2.90;99.90
45868;DHT22;31582;45.490;7.860;2023-03-05T03:06:17;2.80;99.90
45868;DHT22;31582;45.490;7.860;2023-03-05T03:08:43;2.80;99.90
45868;DHT22;31582;45.490;7.860;2023-03-05T03:11:11;2.80;99.90
45868;DHT22;31582;45.490;7.860;2023-03-05T03:13:39;2.70;99.90
45868;DHT22;31582;45.490;7.860;2023-03-05T03:16:11;2.60;99.90
45868;DHT22;31582;45.490;7.860;2023-03-05T03:18:39;2.60;99.90
45868;DHT22;31582;45.490;7.860;2023-03-05T03:21:06;2.60;99.90
45868;DHT22;31582;45.490;7.860;2023-03-05T03:23:33;2.60;99.90
45868;DHT22;31582;45.490;7.860;2023-03-05T03:26:00;2.50;99.90
45868;DHT22;31582;45.490;7.860;2023-03-05T03:28:27;2.60;99.90
45868;DHT22;31582;45.490;7.860;2023-03-05T03:30:54;2.60;99.90
45868;DHT22;31582;45.490;7.860;2023-03-05T03:33:21;2.50;99.90
45868;DHT22;31582;45.490;7.860;2023-03-05T03:35:48;2.60;99.90
45868;DHT22;31582;45.490;7.860;2023-03-05T03:38:15;2.60;99.90
45868;DHT22;31582;45.490;7.860;2023-03-05T03:40:41;2.60;99.90
45868;DHT22;31582;45.490;7.860;2023-03-05T03:43:08;2.70;99.90
45868;DHT22;31582;45.490;7.860;2023-03-05T03:45:39;2.80;99.90
45868;DHT22;31582;45.490;7.860;2023-03-05T03:48:06;3.00;99.90
45868;DHT22;31582;45.490;7.860;2023-03-05T03:50:33;3.30;99.90
45868;DHT22;31582;45.490;7.860;2023-03-05T03:53:00;3.60;98.40
45868;DHT22;31582;45.490;7.860;2023-03-05T03:55:27;3.80;98.30
45868;DHT22;31582;45.490;7.860;2023-03-05T03:57:54;4.00;99.90
45868;DHT22;31582;45.490;7.860;2023-03-05T04:00:21;4.00;99.90
45868;DHT22;31582;45.490;7.860;2023-03-05T04:02:48;3.80;99.90
45868;DHT22;31582;45.490;7.860;2023-03-05T04:05:15;3.70;99.90
45868;DHT22;31582;45.490;7.860;2023-03-05T04:07:42;3.50;99.90
45868;DHT22;31582;45.490;7.860;2023-03-05T04:10:11;3.50;99.90
45868;DHT22;31582;45.490;7.860;2023-03-05T04:12:38;3.50;99.90
45868;DHT22;31582;45.490;7.860;2023-03-05T04:15:05;3.50;99.90
45868;DHT22;31582;45.490;7.860;2023-03-05T04:17:33;3.60;99.60
45868;DHT22;31582;45.490;7.860;2023-03-05T04:20:00;3.90;94.70
45868;DHT22;31582;45.490;7.860;2023-03-05T04:22:27;4.20;92.50
45868;DHT22;31582;45.490;7.860;2023-03-05T04:24:54;4.40;90.90
45868;DHT22;31582;45.490;7.860;2023-03-05T04:27:21;4.60;84.10
45868;DHT22;31582;45.490;7.860;2023-03-05T04:29:48;4.90;79.70
45868;DHT22;31582;45.490;7.860;2023-03-05T04:32:14;5.00;79.40
45868;DHT22;31582;45.490;7.860;2023-03-05T04:34:48;5.20;78.40
45868;DHT22;31582;45.490;7.860;2023-03-05T04:37:15;5.30;79.40
45868;DHT22;31582;45.490;7.860;2023-03-05T04:39:42;5.30;81.10
45868;DHT22;31582;45.490;7.860;2023-03-05T04:42:09;5.30;78.30
45868;DHT22;31582;45.490;7.860;2023-03-05T04:44:36;5.30;77.70
45868;DHT22;31582;45.490;7.860;2023-03-05T04:47:03;5.30;77.20
45868;DHT22;31582;45.490;7.860;2023-03-05T04:49:30;5.30;76.50
45868;DHT22;31582;45.490;7.860;2023-03-05T04:51:57;5.40;72.50
45868;DHT22;31582;45.490;7.860;2023-03-05T04:54:24;5.30;74.10
45868;DHT22;31582;45.490;7.860;2023-03-05T04:56:50;5.30;75.60
45868;DHT22;31582;45.490;7.860;2023-03-05T04:59:17;5.30;78.90
45868;DHT22;31582;45.490;7.860;2023-03-05T05:01:44;5.30;81.20
45868;DHT22;31582;45.490;7.860;2023-03-05T05:04:11;5.20;77.60
45868;DHT22;31582;45.490;7.860;2023-03-05T05:06:38;5.20;76.60
45868;DHT22;31582;45.490;7.860;2023-03-05T05:09:05;5.30;73.00
45868;DHT22;31582;45.490;7.860;2023-03-05T05:11:32;5.30;72.10
45868;DHT22;31582;45.490;7.860;2023-03-05T05:13:59;5.30;72.40
45868;DHT22;31582;45.490;7.860;2023-03-05T05:16:25;5.40;87.20
45868;DHT22;31582;45.490;7.860;2023-03-05T05:18:52;5.30;93.00
45868;DHT22;31582;45.490;7.860;2023-03-05T05:21:19;5.20;95.90
45868;DHT22;31582;45.490;7.860;2023-03-05T05:23:46;5.00;97.20
45868;DHT22;31582;45.490;7.860;2023-03-05T05:26:13;4.70;99.90
45868;DHT22;31582;45.490;7.860;2023-03-05T05:28:42;4.60;99.90
45868;DHT22;31582;45.490;7.860;2023-03-05T05:31:10;4.50;99.90
45868;DHT22;31582;45.490;7.860;2023-03-05T05:33:37;4.40;99.90
45868;DHT22;31582;45.490;7.860;2023-03-05T05:36:06;4.30;99.90
45868;DHT22;31582;45.490;7.860;2023-03-05T05:38:34;4.20;99.90
45868;DHT22;31582;45.490;7.860;2023-03-05T05:41:12;4.10;99.90
45868;DHT22;31582;45.490;7.860;2023-03-05T05:43:39;4.10;99.90
45868;DHT22;31582;45.490;7.860;2023-03-05T05:46:15;4.00;99.90
45868;DHT22;31582;45.490;7.860;2023-03-05T05:48:43;4.00;99.90
45868;DHT22;31582;45.490;7.860;2023-03-05T05:51:12;4.00;93.00
45868;DHT22;31582;45.490;7.860;2023-03-05T05:53:40;4.20;85.80
45868;DHT22;31582;45.490;7.860;2023-03-05T05:56:09;4.40;83.30
45868;DHT22;31582;45.490;7.860;2023-03-05T05:58:38;4.50;82.10
45868;DHT22;31582;45.490;7.860;2023-03-05T06:01:19;4.60;89.00
45868;DHT22;31582;45.490;7.860;2023-03-05T06:03:46;4.60;92.00
45868;DHT22;31582;45.490;7.860;2023-03-05T06:06:15;4.40;93.30
45868;DHT22;31582;45.490;7.860;2023-03-05T06:08:43;4.20;97.60
45868;DHT22;31582;45.490;7.860;2023-03-05T06:11:10;4.00;99.90
45868;DHT22;31582;45.490;7.860;2023-03-05T06:13:37;3.80;99.90
45868;DHT22;31582;45.490;7.860;2023-03-05T06:16:07;3.70;99.90
45868;DHT22;31582;45.490;7.860;2023-03-05T06:18:34;3.50;99.90
45868;DHT22;31582;45.490;7.860;2023-03-05T06:21:04;3.50;99.90
45868;DHT22;31582;45.490;7.860;2023-03-05T06:23:32;3.40;99.90
45868;DHT22;31582;45.490;7.860;2023-03-05T06:26:05;3.40;99.90
45868;DHT22;31582;45.490;7.860;2023-03-05T06:28:33;3.30;99.90
45868;DHT22;31582;45.490;7.860;2023-03-05T06:33:33;3.30;99.90
45868;DHT22;31582;45.490;7.860;2023-03-05T06:36:09;3.30;99.90
45868;DHT22;31582;45.490;7.860;2023-03-05T06:38:37;3.30;99.90
45868;DHT22;31582;45.490;7.860;2023-03-05T06:41:13;3.30;99.90
45868;DHT22;31582;45.490;7.860;2023-03-05T06:43:43;3.40;99.90
45868;DHT22;31582;45.490;7.860;2023-03-05T06:46:19;3.40;99.90
45868;DHT22;31582;45.490;7.860;2023-03-05T06:48:47;3.50;99.20
45868;DHT22;31582;45.490;7.860;2023-03-05T06:51:26;3.50;99.90
45868;DHT22;31582;45.490;7.860;2023-03-05T06:53:54;3.50;99.90
45868;DHT22;31582;45.490;7.860;2023-03-05T06:56:22;3.50;99.90
45868;DHT22;31582;45.490;7.860;2023-03-05T06:58:50;3.50;99.90
45868;DHT22;31582;45.490;7.860;2023-03-05T07:01:18;3.60;99.90
45868;DHT22;31582;45.490;7.860;2023-03-05T07:03:53;3.60;99.90
45868;DHT22;31582;45.490;7.860;2023-03-05T07:06:20;3.80;93.00
45868;DHT22;31582;45.490;7.860;2023-03-05T07:08:47;4.20;84.80
45868;DHT22;31582;45.490;7.860;2023-03-05T07:11:19;4.40;80.40
45868;DHT22;31582;45.490;7.860;2023-03-05T07:13:47;4.70;77.70
45868;DHT22;31582;45.490;7.860;2023-03-05T07:16:18;4.90;71.90
45868;DHT22;31582;45.490;7.860;2023-03-05T07:18:45;5.20;70.10
45868;DHT22;31582;45.490;7.860;2023-03-05T07:21:23;5.30;66.70
45868;DHT22;31582;45.490;7.860;2023-03-05T07:23:55;5.60;66.00
45868;DHT22;31582;45.490;7.860;2023-03-05T07:26:22;5.80;64.50
45868;DHT22;31582;45.490;7.860;2023-03-05T07:28:49;5.90;65.20
45868;DHT22;31582;45.490;7.860;2023-03-05T07:31:22;6.00;64.00
45868;DHT22;31582;45.490;7.860;2023-03-05T07:33:52;6.20;61.60
45868;DHT22;31582;45.490;7.860;2023-03-05T07:36:20;6.40;60.90
45868;DHT22;31582;45.490;7.860;2023-03-05T07:38:47;6.50;62.60
45868;DHT22;31582;45.490;7.860;2023-03-05T07:41:18;6.70;62.30
45868;DHT22;31582;45.490;7.860;2023-03-05T07:43:49;6.90;69.50
45868;DHT22;31582;45.490;7.860;2023-03-05T07:46:17;7.00;81.20
45868;DHT22;31582;45.490;7.860;2023-03-05T07:48:45;7.10;91.30
45868;DHT22;31582;45.490;7.860;2023-03-05T07:51:14;7.10;94.10
45868;DHT22;31582;45.490;7.860;2023-03-05T07:53:43;7.20;92.90
45868;DHT22;31582;45.490;7.860;2023-03-05T07:56:10;7.30;91.80
45868;DHT22;31582;45.490;7.860;2023-03-05T07:58:37;7.40;73.30
45868;DHT22;31582;45.490;7.860;2023-03-05T08:01:10;7.60;64.80
45868;DHT22;31582;45.490;7.860;2023-03-05T08:03:40;7.80;59.40
45868;DHT22;31582;45.490;7.860;2023-03-05T08:06:08;8.10;57.30
45868;DHT22;31582;45.490;7.860;2023-03-05T08:08:35;8.40;54.60
45868;DHT22;31582;45.490;7.860;2023-03-05T08:11:06;8.60;51.90
45868;DHT22;31582;45.490;7.860;2023-03-05T08:13:33;8.90;50.80
45868;DHT22;31582;45.490;7.860;2023-03-05T08:16:08;9.10;50.00
45868;DHT22;31582;45.490;7.860;2023-03-05T08:18:36;9.30;49.00
45868;DHT22;31582;45.490;7.860;2023-03-05T08:21:03;9.50;50.80
45868;DHT22;31582;45.490;7.860;2023-03-05T08:23:30;9.70;51.90
45868;DHT22;31582;45.490;7.860;2023-03-05T08:25:57;9.90;48.10
45868;DHT22;31582;45.490;7.860;2023-03-05T08:28:24;10.10;50.80
45868;DHT22;31582;45.490;7.860;2023-03-05T08:30:51;10.20;51.50
45868;DHT22;31582;45.490;7.860;2023-03-05T08:33:18;10.30;50.90
45868;DHT22;31582;45.490;7.860;2023-03-05T08:35:45;10.50;51.90
45868;DHT22;31582;45.490;7.860;2023-03-05T08:38:12;10.60;52.10
45868;DHT22;31582;45.490;7.860;2023-03-05T08:40:39;10.70;52.30
45868;DHT22;31582;45.490;7.860;2023-03-05T08:43:06;10.90;52.70
45868;DHT22;31582;45.490;7.860;2023-03-05T08:45:33;11.00;52.70
45868;DHT22;31582;45.490;7.860;2023-03-05T08:47:59;11.20;49.50
45868;DHT22;31582;45.490;7.860;2023-03-05T08:50:26;11.40;49.10
45868;DHT22;31582;45.490;7.860;2023-03-05T08:52:53;11.50;50.90
45868;DHT22;31582;45.490;7.860;2023-03-05T08:55:22;11.60;48.70
45868;DHT22;31582;45.490;7.860;2023-03-05T08:57:49;11.70;50.10
45868;DHT22;31582;45.490;7.860;2023-03-05T09:00:16;11.80;51.50
45868;DHT22;31582;45.490;7.860;2023-03-05T09:02:43;11.80;49.00
45868;DHT22;31582;45.490;7.860;2023-03-05T09:05:10;12.00;50.40
45868;DHT22;31582;45.490;7.860;2023-03-05T09:07:37;12.00;49.90
45868;DHT22;31582;45.490;7.860;2023-03-05T09:10:07;12.10;49.00
45868;DHT22;31582;45.490;7.860;2023-03-05T09:12:37;12.20;48.70
45868;DHT22;31582;45.490;7.860;2023-03-05T09:15:05;12.20;49.40
45868;DHT22;31582;45.490;7.860;2023-03-05T09:17:35;12.20;50.50
45868;DHT22;31582;45.490;7.860;2023-03-05T09:20:03;12.30;46.50
45868;DHT22;31582;45.490;7.860;2023-03-05T09:22:30;12.20;44.60
45868;DHT22;31582;45.490;7.860;2023-03-05T09:24:57;12.40;45.20
45868;DHT22;31582;45.490;7.860;2023-03-05T09:27:23;12.50;46.30
45868;DHT22;31582;45.490;7.860;2023-03-05T09:29:50;12.60;46.70
45868;DHT22;31582;45.490;7.860;2023-03-05T09:32:18;12.60;46.00
45868;DHT22;31582;45.490;7.860;2023-03-05T09:34:45;12.70;47.70
45868;DHT22;31582;45.490;7.860;2023-03-05T09:37:12;12.90;47.00
45868;DHT22;31582;45.490;7.860;2023-03-05T09:39:39;13.10;46.70
45868;DHT22;31582;45.490;7.860;2023-03-05T09:47:50;13.50;46.50
45868;DHT22;31582;45.490;7.860;2023-03-05T09:50:45;13.70;45.60
45868;DHT22;31582;45.490;7.860;2023-03-05T09:53:26;13.90;46.40
45868;DHT22;31582;45.490;7.860;2023-03-05T09:56:03;14.00;45.40
45868;DHT22;31582;45.490;7.860;2023-03-05T09:58:39;14.00;45.30
45868;DHT22;31582;45.490;7.860;2023-03-05T10:01:12;14.20;44.90
45868;DHT22;31582;45.490;7.860;2023-03-05T10:09:43;14.50;49.10
45868;DHT22;31582;45.490;7.860;2023-03-05T10:12:17;14.70;52.30
45868;DHT22;31582;45.490;7.860;2023-03-05T10:14:47;14.60;51.30
45868;DHT22;31582;45.490;7.860;2023-03-05T10:20:12;14.60;53.40
45868;DHT22;31582;45.490;7.860;2023-03-05T10:23:03;14.80;53.40
45868;DHT22;31582;45.490;7.860;2023-03-05T10:31:02;15.00;51.10
45868;DHT22;31582;45.490;7.860;2023-03-05T10:36:45;15.10;49.20
45868;DHT22;31582;45.490;7.860;2023-03-05T10:41:59;15.30;47.60
45868;DHT22;31582;45.490;7.860;2023-03-05T10:49:49;15.50;47.60
45868;DHT22;31582;45.490;7.860;2023-03-05T10:52:26;15.50;47.00
45868;DHT22;31582;45.490;7.860;2023-03-05T10:54:56;15.50;45.80
45868;DHT22;31582;45.490;7.860;2023-03-05T10:57:29;15.50;47.00
45868;DHT22;31582;45.490;7.860;2023-03-05T11:00:18;15.50;47.00
45868;DHT22;31582;45.490;7.860;2023-03-05T11:03:05;15.50;47.60
45868;DHT22;31582;45.490;7.860;2023-03-05T11:05:42;15.40;48.20
45868;DHT22;31582;45.490;7.860;2023-03-05T11:11:13;15.60;48.20
45868;DHT22;31582;45.490;7.860;2023-03-05T11:14:00;15.80;47.50
45868;DHT22;31582;45.490;7.860;2023-03-05T11:16:31;15.80;47.00
45868;DHT22;31582;45.490;7.860;2023-03-05T11:21:42;15.80;47.20
45868;DHT22;31582;45.490;7.860;2023-03-05T11:24:12;15.80;48.40
45868;DHT22;31582;45.490;7.860;2023-03-05T11:26:56;15.90;47.90
45868;DHT22;31582;45.490;7.860;2023-03-05T11:29:29;15.80;46.60
45868;DHT22;31582;45.490;7.860;2023-03-05T11:34:46;15.90;46.50
45868;DHT22;31582;45.490;7.860;2023-03-05T11:37:31;15.90;46.70
45868;DHT22;31582;45.490;7.860;2023-03-05T11:40:21;15.90;47.80
45868;DHT22;31582;45.490;7.860;2023-03-05T11:42:57;16.10;46.50
45868;DHT22;31582;45.490;7.860;2023-03-05T11:45:25;16.30;47.20
45868;DHT22;31582;45.490;7.860;2023-03-05T11:47:56;16.50;46.00
45868;DHT22;31582;45.490;7.860;2023-03-05T11:53:16;16.70;46.70
45868;DHT22;31582;45.490;7.860;2023-03-05T11:56:13;16.80;45.40
45868;DHT22;31582;45.490;7.860;2023-03-05T12:01:23;16.60;45.30
45868;DHT22;31582;45.490;7.860;2023-03-05T12:03:51;16.60;46.30
45868;DHT22;31582;45.490;7.860;2023-03-05T12:06:42;16.70;46.30
45868;DHT22;31582;45.490;7.860;2023-03-05T12:20:22;17.10;45.50
45868;DHT22;31582;45.490;7.860;2023-03-05T12:22:55;17.10;46.20
45868;DHT22;31582;45.490;7.860;2023-03-05T12:27:50;17.20;45.60
45868;DHT22;31582;45.490;7.860;2023-03-05T12:33:04;17.40;46.00
45868;DHT22;31582;45.490;7.860;2023-03-05T12:35:38;17.40;46.10
45868;DHT22;31582;45.490;7.860;2023-03-05T12:38:31;17.50;47.00
45868;DHT22;31582;45.490;7.860;2023-03-05T12:46:36;17.30;46.60
45868;DHT22;31582;45.490;7.860;2023-03-05T12:51:50;17.30;47.90
45868;DHT22;31582;45.490;7.860;2023-03-05T12:54:28;17.40;47.60
45868;DHT22;31582;45.490;7.860;2023-03-05T12:57:17;17.60;47.70
45868;DHT22;31582;45.490;7.860;2023-03-05T13:02:32;17.80;45.00
45868;DHT22;31582;45.490;7.860;2023-03-05T13:07:49;17.60;46.10
45868;DHT22;31582;45.490;7.860;2023-03-05T13:10:28;17.70;46.20
45868;DHT22;31582;45.490;7.860;2023-03-05T13:12:56;17.80;46.10
45868;DHT22;31582;45.490;7.860;2023-03-05T13:15:25;17.70;44.80
45868;DHT22;31582;45.490;7.860;2023-03-05T13:17:59;17.70;45.80
45868;DHT22;31582;45.490;7.860;2023-03-05T13:20:37;17.80;45.50
45868;DHT22;31582;45.490;7.860;2023-03-05T13:23:25;17.70;44.80
45868;DHT22;31582;45.490;7.860;2023-03-05T13:26:15;17.80;45.70
45868;DHT22;31582;45.490;7.860;2023-03-05T13:31:28;18.00;45.60
45868;DHT22;31582;45.490;7.860;2023-03-05T13:33:56;18.10;44.40
45868;DHT22;31582;45.490;7.860;2023-03-05T13:36:25;18.10;43.60
45868;DHT22;31582;45.490;7.860;2023-03-05T13:38:53;18.10;43.40
45868;DHT22;31582;45.490;7.860;2023-03-05T13:41:23;18.00;44.00
45868;DHT22;31582;45.490;7.860;2023-03-05T13:43:53;18.20;43.80
45868;DHT22;31582;45.490;7.860;2023-03-05T13:46:24;18.30;42.10
45868;DHT22;31582;45.490;7.860;2023-03-05T13:48:52;18.20;42.60
45868;DHT22;31582;45.490;7.860;2023-03-05T13:51:18;18.10;43.10
45868;DHT22;31582;45.490;7.860;2023-03-05T13:53:46;18.10;43.40
45868;DHT22;31582;45.490;7.860;2023-03-05T13:56:16;18.10;43.20
45868;DHT22;31582;45.490;7.860;2023-03-05T13:58:50;18.20;41.40
45868;DHT22;31582;45.490;7.860;2023-03-05T14:01:44;18.20;41.40
45868;DHT22;31582;45.490;7.860;2023-03-05T14:07:03;18.20;40.40
45868;DHT22;31582;45.490;7.860;2023-03-05T14:14:52;18.10;41.50
45868;DHT22;31582;45.490;7.860;2023-03-05T14:17:31;18.10;41.90
45868;DHT22;31582;45.490;7.860;2023-03-05T14:22:42;17.90;42.00
45868;DHT22;31582;45.490;7.860;2023-03-05T14:25:34;17.90;42.70
45868;DHT22;31582;45.490;7.860;2023-03-05T14:28:26;17.90;43.10
45868;DHT22;31582;45.490;7.860;2023-03-05T14:30:53;18.10;42.70
45868;DHT22;31582;45.490;7.860;2023-03-05T14:33:29;18.10;41.50
45868;DHT22;31582;45.490;7.860;2023-03-05T14:35:59;18.20;42.80
45868;DHT22;31582;45.490;7.860;2023-03-05T14:38:29;18.30;42.90
45868;DHT22;31582;45.490;7.860;2023-03-05T14:40:57;18.30;41.40
45868;DHT22;31582;45.490;7.860;2023-03-05T14:43:24;18.20;42.20
45868;DHT22;31582;45.490;7.860;2023-03-05T14:45:51;18.30;42.10
45868;DHT22;31582;45.490;7.860;2023-03-05T14:48:18;18.30;42.90
45868;DHT22;31582;45.490;7.860;2023-03-05T14:50:52;18.10;42.40
45868;DHT22;31582;45.490;7.860;2023-03-05T14:53:28;17.90;43.10
45868;DHT22;31582;45.490;7.860;2023-03-05T14:55:56;17.70;43.00
45868;DHT22;31582;45.490;7.860;2023-03-05T14:58:25;17.60;43.40
45868;DHT22;31582;45.490;7.860;2023-03-05T15:00:54;17.60;43.30
45868;DHT22;31582;45.490;7.860;2023-03-05T15:03:21;17.50;44.80
45868;DHT22;31582;45.490;7.860;2023-03-05T15:05:51;17.50;43.10
45868;DHT22;31582;45.490;7.860;2023-03-05T15:08:28;17.40;43.70
45868;DHT22;31582;45.490;7.860;2023-03-05T15:10:55;17.40;43.50
45868;DHT22;31582;45.490;7.860;2023-03-05T15:13:22;17.40;43.90
45868;DHT22;31582;45.490;7.860;2023-03-05T15:15:50;17.30;43.90
45868;DHT22;31582;45.490;7.860;2023-03-05T15:18:20;17.30;44.50
45868;DHT22;31582;45.490;7.860;2023-03-05T15:20:47;17.40;44.00
45868;DHT22;31582;45.490;7.860;2023-03-05T15:23:16;17.40;44.50
45868;DHT22;31582;45.490;7.860;2023-03-05T15:25:43;17.40;44.40
45868;DHT22;31582;45.490;7.860;2023-03-05T15:28:10;17.30;43.50
45868;DHT22;31582;45.490;7.860;2023-03-05T15:30:40;17.20;45.70
45868;DHT22;31582;45.490;7.860;2023-03-05T15:33:12;17.10;46.00
45868;DHT22;31582;45.490;7.860;2023-03-05T15:35:40;17.00;46.50
45868;DHT22;31582;45.490;7.860;2023-03-05T15:38:07;17.00;46.50
45868;DHT22;31582;45.490;7.860;2023-03-05T15:40:34;17.00;46.40
45868;DHT22;31582;45.490;7.860;2023-03-05T15:43:01;17.00;46.60
45868;DHT22;31582;45.490;7.860;2023-03-05T15:45:29;17.10;46.50
45868;DHT22;31582;45.490;7.860;2023-03-05T15:47:59;17.30;46.10
45868;DHT22;31582;45.490;7.860;2023-03-05T15:50:26;17.50;45.20
45868;DHT22;31582;45.490;7.860;2023-03-05T15:52:53;17.50;44.60
45868;DHT22;31582;45.490;7.860;2023-03-05T15:55:20;17.50;44.80
45868;DHT22;31582;45.490;7.860;2023-03-05T15:57:50;17.50;45.50
45868;DHT22;31582;45.490;7.860;2023-03-05T16:00:25;17.60;45.50
45868;DHT22;31582;45.490;7.860;2023-03-05T16:02:54;17.70;45.10
45868;DHT22;31582;45.490;7.860;2023-03-05T16:05:21;17.60;44.40
45868;DHT22;31582;45.490;7.860;2023-03-05T16:07:48;17.50;45.00
45868;DHT22;31582;45.490;7.860;2023-03-05T16:10:21;17.60;45.40
45868;DHT22;31582;45.490;7.860;2023-03-05T16:12:51;17.70;45.10
45868;DHT22;31582;45.490;7.860;2023-03-05T16:15:20;17.60;45.20
45868;DHT22;31582;45.490;7.860;2023-03-05T16:17:51;17.70;45.30
45868;DHT22;31582;45.490;7.860;2023-03-05T16:20:20;17.60;44.70
45868;DHT22;31582;45.490;7.860;2023-03-05T16:22:48;17.40;45.00
45868;DHT22;31582;45.490;7.860;2023-03-05T16:25:15;17.20;46.00
45868;DHT22;31582;45.490;7.860;2023-03-05T16:27:42;17.10;46.20
45868;DHT22;31582;45.490;7.860;2023-03-05T16:30:10;17.00;46.30
45868;DHT22;31582;45.490;7.860;2023-03-05T16:32:39;16.90;46.20
45868;DHT22;31582;45.490;7.860;2023-03-05T16:35:10;16.80;46.80
45868;DHT22;31582;45.490;7.860;2023-03-05T16:37:40;16.80;47.30
45868;DHT22;31582;45.490;7.860;2023-03-05T16:40:09;16.80;47.00
45868;DHT22;31582;45.490;7.860;2023-03-05T16:42:36;16.70;47.20
45868;DHT22;31582;45.490;7.860;2023-03-05T16:45:04;16.60;47.40
45868;DHT22;31582;45.490;7.860;2023-03-05T16:47:31;16.50;47.30
45868;DHT22;31582;45.490;7.860;2023-03-05T16:49:58;16.30;48.60
45868;DHT22;31582;45.490;7.860;2023-03-05T16:52:27;16.20;48.50
45868;DHT22;31582;45.490;7.860;2023-03-05T16:54:54;16.10;48.70
45868;DHT22;31582;45.490;7.860;2023-03-05T16:57:21;16.00;49.20
45868;DHT22;31582;45.490;7.860;2023-03-05T16:59:51;15.90;49.80
45868;DHT22;31582;45.490;7.860;2023-03-05T17:02:20;15.80;50.00
45868;DHT22;31582;45.490;7.860;2023-03-05T17:04:49;15.70;50.20
45868;DHT22;31582;45.490;7.860;2023-03-05T17:07:16;15.50;50.30
45868;DHT22;31582;45.490;7.860;2023-03-05T17:09:44;15.40;50.70
45868;DHT22;31582;45.490;7.860;2023-03-05T17:12:12;15.30;51.00
45868;DHT22;31582;45.490;7.860;2023-03-05T17:14:38;15.10;51.20
45868;DHT22;31582;45.490;7.860;2023-03-05T17:17:05;15.00;51.60
45868;DHT22;31582;45.490;7.860;2023-03-05T17:19:32;15.00;52.20
45868;DHT22;31582;45.490;7.860;2023-03-05T17:21:59;14.70;53.60
45868;DHT22;31582;45.490;7.860;2023-03-05T17:24:26;14.50;54.40
45868;DHT22;31582;45.490;7.860;2023-03-05T17:26:53;14.40;55.10
45868;DHT22;31582;45.490;7.860;2023-03-05T17:29:20;14.30;55.70
45868;DHT22;31582;45.490;7.860;2023-03-05T17:31:49;14.30;56.30
45868;DHT22;31582;45.490;7.860;2023-03-05T17:34:20;14.20;57.00
45868;DHT22;31582;45.490;7.860;2023-03-05T17:37:00;14.00;57.50
45868;DHT22;31582;45.490;7.860;2023-03-05T17:39:26;13.80;58.20
45868;DHT22;31582;45.490;7.860;2023-03-05T17:41:53;13.70;59.40
45868;DHT22;31582;45.490;7.860;2023-03-05T17:44:20;13.60;60.20
45868;DHT22;31582;45.490;7.860;2023-03-05T17:46:50;13.40;61.20
45868;DHT22;31582;45.490;7.860;2023-03-05T17:49:16;13.40;61.70
45868;DHT22;31582;45.490;7.860;2023-03-05T17:51:43;13.20;62.70
45868;DHT22;31582;45.490;7.860;2023-03-05T17:54:10;13.10;63.10
45868;DHT22;31582;45.490;7.860;2023-03-05T17:56:37;12.90;63.50
45868;DHT22;31582;45.490;7.860;2023-03-05T17:59:04;12.90;64.20
45868;DHT22;31582;45.490;7.860;2023-03-05T18:01:33;12.80;65.10
45868;DHT22;31582;45.490;7.860;2023-03-05T18:04:00;12.70;65.60
45868;DHT22;31582;45.490;7.860;2023-03-05T18:06:27;12.60;66.70
45868;DHT22;31582;45.490;7.860;2023-03-05T18:08:55;12.50;67.30
45868;DHT22;31582;45.490;7.860;2023-03-05T18:11:22;12.40;68.20
45868;DHT22;31582;45.490;7.860;2023-03-05T18:13:49;12.30;68.40
45868;DHT22;31582;45.490;7.860;2023-03-05T18:16:16;12.20;69.00
45868;DHT22;31582;45.490;7.860;2023-03-05T18:18:44;12.10;69.40
45868;DHT22;31582;45.490;7.860;2023-03-05T18:21:11;12.00;70.00
45868;DHT22;31582;45.490;7.860;2023-03-05T18:23:38;12.00;70.70
45868;DHT22;31582;45.490;7.860;2023-03-05T18:26:05;11.80;71.70
45868;DHT22;31582;45.490;7.860;2023-03-05T18:28:32;11.70;71.60
45868;DHT22;31582;45.490;7.860;2023-03-05T18:31:00;11.70;71.90
45868;DHT22;31582;45.490;7.860;2023-03-05T18:33:27;11.60;72.20
45868;DHT22;31582;45.490;7.860;2023-03-05T18:35:54;11.50;72.60
45868;DHT22;31582;45.490;7.860;2023-03-05T18:38:23;11.50;74.30
45868;DHT22;31582;45.490;7.860;2023-03-05T18:40:51;11.30;74.70
45868;DHT22;31582;45.490;7.860;2023-03-05T18:43:20;11.20;75.50
45868;DHT22;31582;45.490;7.860;2023-03-05T18:45:52;11.20;75.70
45868;DHT22;31582;45.490;7.860;2023-03-05T18:48:20;11.10;77.30
45868;DHT22;31582;45.490;7.860;2023-03-05T18:50:53;11.00;77.40
45868;DHT22;31582;45.490;7.860;2023-03-05T18:53:21;10.90;77.60
45868;DHT22;31582;45.490;7.860;2023-03-05T18:55:49;10.80;78.80
45868;DHT22;31582;45.490;7.860;2023-03-05T18:58:17;10.70;79.50
45868;DHT22;31582;45.490;7.860;2023-03-05T19:00:45;10.60;81.10
45868;DHT22;31582;45.490;7.860;2023-03-05T19:03:14;10.60;80.70
45868;DHT22;31582;45.490;7.860;2023-03-05T19:05:41;10.50;80.60
45868;DHT22;31582;45.490;7.860;2023-03-05T19:08:08;10.40;82.70
45868;DHT22;31582;45.490;7.860;2023-03-05T19:10:35;10.30;82.40
45868;DHT22;31582;45.490;7.860;2023-03-05T19:13:38;10.20;82.00
45868;DHT22;31582;45.490;7.860;2023-03-05T19:16:11;10.20;81.60
45868;DHT22;31582;45.490;7.860;2023-03-05T19:19:16;10.20;81.20
45868;DHT22;31582;45.490;7.860;2023-03-05T19:21:53;10.10;80.70
45868;DHT22;31582;45.490;7.860;2023-03-05T19:24:23;10.10;80.60
45868;DHT22;31582;45.490;7.860;2023-03-05T19:26:50;10.00;81.20
45868;DHT22;31582;45.490;7.860;2023-03-05T19:29:22;10.00;81.30
45868;DHT22;31582;45.490;7.860;2023-03-05T19:31:50;10.00;81.50
45868;DHT22;31582;45.490;7.860;2023-03-05T19:34:18;10.00;82.50
45868;DHT22;31582;45.490;7.860;2023-03-05T19:36:46;9.90;83.40
45868;DHT22;31582;45.490;7.860;2023-03-05T19:39:13;9.80;83.50
45868;DHT22;31582;45.490;7.860;2023-03-05T19:41:41;9.70;84.00
45868;DHT22;31582;45.490;7.860;2023-03-05T19:44:08;9.70;85.20
45868;DHT22;31582;45.490;7.860;2023-03-05T19:46:35;9.60;85.60